Terminal Aerodrome Forecast
Issued by NWS

Home | Current Version | Previous Version | Text Only | Print | Product List | Glossary On
Versions: 1 2 3 4 5 6 7 8 9 10 11 12 13
000
FTUS46 KHNX 251720
TAFBFL
TAF
KBFL 251720Z 2518/2618 32012KT P6SM SCT100 BKN250
     FM260300 34006KT P6SM SCT050 BKN250
     FM260700 VRB04KT P6SM OVC025=

USA.gov is the U.S. government's official web portal to all federal, state and local government web resources and services.